createdAt,value
2024-04-06T00:04:19.820Z,11.90
2024-04-06T00:09:22.972Z,11.40
2024-04-06T00:14:30.630Z,13.40
2024-04-06T00:19:39.726Z,14.20
2024-04-06T00:24:43.960Z,10.20
2024-04-06T00:29:48.997Z,11.80
2024-04-06T00:34:51.715Z,13.60
2024-04-06T00:39:54.211Z,10.90
2024-04-06T00:45:02.324Z,16.90
2024-04-06T00:50:17.038Z,15.80
2024-04-06T00:55:21.112Z,15.90
2024-04-06T01:00:30.535Z,19.70
2024-04-06T01:05:35.577Z,15.20
2024-04-06T01:10:40.819Z,15.30
2024-04-06T01:15:43.825Z,17.40
2024-04-06T01:20:48.389Z,20.40
2024-04-06T01:25:55.611Z,16.60
2024-04-06T01:30:58.792Z,21.60
2024-04-06T01:36:02.085Z,21.60
2024-04-06T01:41:07.548Z,17.20
2024-04-06T01:46:11.363Z,23.60
2024-04-06T01:51:20.849Z,18.70
2024-04-06T01:56:32.457Z,21.80
2024-04-06T02:01:37.450Z,15.10
2024-04-06T02:06:40.157Z,13.80
2024-04-06T02:11:45.387Z,18.60
2024-04-06T02:16:53.193Z,16.00
2024-04-06T02:22:01.306Z,16.10
2024-04-06T02:27:04.984Z,16.10
2024-04-06T02:32:09.259Z,17.70
2024-04-06T02:37:12.096Z,14.30
2024-04-06T02:42:18.179Z,8.80
2024-04-06T02:47:27.089Z,13.30
2024-04-06T02:52:29.945Z,11.90
2024-04-06T02:57:35.188Z,15.70
2024-04-06T03:02:38.178Z,16.50
2024-04-06T03:07:41.172Z,13.60
2024-04-06T03:12:47.933Z,13.20
2024-04-06T03:17:52.302Z,13.30
2024-04-06T03:23:03.146Z,11.30
2024-04-06T03:28:11.499Z,11.10
2024-04-06T03:33:14.140Z,10.20
2024-04-06T03:38:19.529Z,10.70
2024-04-06T03:43:27.864Z,13.00
2024-04-06T03:48:34.129Z,11.50
2024-04-06T03:53:39.747Z,11.90
2024-04-06T03:58:43.653Z,12.40
2024-04-06T04:03:46.417Z,10.40
2024-04-06T04:08:49.119Z,10.80
2024-04-06T04:13:54.904Z,13.00
2024-04-06T04:18:57.868Z,13.70
2024-04-06T04:24:06.170Z,15.50
2024-04-06T04:29:11.397Z,11.60
2024-04-06T04:34:16.605Z,11.00
2024-04-06T04:39:21.553Z,8.00
2024-04-06T04:49:42.155Z,9.40
2024-04-06T04:54:47.807Z,8.10
2024-04-06T04:59:50.960Z,7.10
2024-04-06T05:04:56.517Z,12.80
2024-04-06T05:09:59.329Z,10.30
2024-04-06T05:15:05.594Z,9.20
2024-04-06T05:20:09.980Z,7.90
2024-04-06T05:25:13.000Z,7.80
2024-04-06T05:30:15.836Z,7.40
2024-04-06T05:35:19.403Z,8.10
2024-04-06T05:40:23.884Z,5.80
2024-04-06T05:45:26.428Z,8.90
2024-04-06T05:50:34.991Z,9.00
2024-04-06T05:55:38.118Z,8.60
2024-04-06T06:00:43.495Z,8.40
2024-04-06T06:05:46.330Z,9.70
2024-04-06T06:10:51.462Z,7.00
2024-04-06T06:15:55.994Z,9.10
2024-04-06T06:21:06.919Z,9.00
2024-04-06T06:26:09.603Z,10.10
2024-04-06T06:31:17.367Z,9.80
2024-04-06T06:41:31.423Z,10.70
2024-04-06T06:46:35.934Z,9.10
2024-04-06T06:51:40.647Z,9.90
2024-04-06T06:56:46.206Z,10.30
2024-04-06T07:01:51.600Z,9.00
2024-04-06T07:12:00.254Z,7.90
2024-04-06T07:17:12.258Z,9.90
2024-04-06T07:22:16.529Z,8.50
2024-04-06T07:27:21.567Z,8.70
2024-04-06T07:32:24.272Z,9.00
2024-04-06T07:37:29.396Z,9.50
2024-04-06T07:42:35.008Z,8.10
2024-04-06T07:47:40.211Z,8.10
2024-04-06T07:52:45.283Z,8.60
2024-04-06T07:57:48.084Z,9.00
2024-04-06T08:02:51.235Z,8.40
2024-04-06T08:07:54.122Z,9.60
2024-04-06T08:12:59.499Z,10.10
2024-04-06T08:18:08.505Z,9.90
2024-04-06T08:23:19.263Z,10.40
2024-04-06T08:28:22.468Z,10.80
2024-04-06T08:33:26.406Z,8.90
2024-04-06T08:38:34.119Z,8.00
2024-04-06T08:43:44.376Z,9.10
2024-04-06T08:48:49.778Z,8.80
2024-04-06T08:53:58.069Z,10.90
2024-04-06T08:59:06.356Z,9.30
2024-04-06T09:04:09.035Z,10.60
2024-04-06T09:09:19.371Z,9.60
2024-04-06T09:14:25.807Z,6.90
2024-04-06T09:19:28.551Z,9.80
2024-04-06T09:24:33.275Z,10.00
2024-04-06T09:29:36.978Z,11.30
2024-04-06T09:34:54.123Z,9.90
2024-04-06T09:39:59.227Z,8.40
2024-04-06T09:45:09.172Z,8.50
2024-04-06T09:50:17.483Z,9.10
2024-04-06T09:55:20.301Z,9.70
2024-04-06T10:00:23.600Z,6.30
2024-04-06T10:06:20.106Z,7.50
2024-04-06T10:11:25.233Z,8.70
2024-04-06T10:16:33.253Z,9.30
2024-04-06T10:21:47.835Z,9.40
2024-04-06T10:26:56.029Z,8.20
2024-04-06T10:32:02.608Z,8.50
2024-04-06T10:37:08.219Z,8.40
2024-04-06T10:42:13.111Z,10.90
2024-04-06T10:47:21.708Z,8.40
2024-04-06T10:52:25.834Z,11.30
2024-04-06T10:57:31.141Z,9.90
2024-04-06T11:02:34.941Z,13.30
2024-04-06T11:07:43.139Z,10.80
2024-04-06T11:12:51.305Z,11.70
2024-04-06T11:17:56.210Z,14.60
2024-04-06T11:23:02.191Z,8.30
2024-04-06T11:28:06.046Z,13.60
2024-04-06T11:33:12.968Z,15.10
2024-04-06T11:38:22.632Z,13.10
2024-04-06T11:43:27.203Z,7.20
2024-04-06T11:49:00.207Z,7.10
2024-04-06T11:54:05.965Z,9.40
2024-04-06T11:59:09.126Z,7.80
2024-04-06T12:04:12.371Z,7.50
2024-04-06T12:09:17.618Z,7.10
2024-04-06T12:14:23.881Z,6.10
2024-04-06T12:19:27.513Z,10.00
2024-04-06T12:30:02.352Z,8.80
2024-04-06T12:35:08.356Z,9.00
2024-04-06T12:40:13.715Z,9.50
2024-04-06T12:45:16.643Z,12.70
2024-04-06T12:50:27.892Z,9.90
2024-04-06T12:55:33.603Z,9.80
2024-04-06T13:00:40.509Z,15.30
2024-04-06T13:05:43.351Z,9.70
2024-04-06T13:10:51.851Z,9.50
2024-04-06T13:15:57.331Z,9.70
2024-04-06T13:21:01.108Z,13.10
2024-04-06T13:26:07.252Z,12.60
2024-04-06T13:31:13.853Z,10.10
2024-04-06T13:36:16.587Z,9.80
2024-04-06T13:41:24.591Z,9.20
2024-04-06T13:46:27.402Z,9.10
2024-04-06T13:51:30.324Z,7.70
2024-04-06T13:56:35.594Z,9.20
2024-04-06T14:01:44.800Z,11.80
2024-04-06T14:06:48.060Z,11.50
2024-04-06T14:11:50.715Z,9.10
2024-04-06T14:16:53.631Z,7.00
2024-04-06T14:21:57.118Z,7.00
2024-04-06T14:26:59.762Z,9.50
2024-04-06T14:32:08.021Z,8.00
2024-04-06T14:37:11.458Z,7.20
2024-04-06T14:42:14.184Z,9.40
2024-04-06T14:47:16.851Z,9.70
2024-04-06T14:52:21.764Z,8.10
2024-04-06T14:57:24.569Z,9.70
2024-04-06T15:02:27.261Z,13.60
2024-04-06T15:07:54.693Z,8.60
2024-04-06T15:13:07.528Z,9.60
2024-04-06T15:18:13.701Z,10.10
2024-04-06T15:23:17.098Z,11.50
2024-04-06T15:28:24.126Z,7.90
2024-04-06T15:33:27.018Z,9.10
2024-04-06T15:38:30.741Z,7.70
2024-04-06T15:43:39.348Z,8.50
2024-04-06T15:48:46.472Z,9.90
2024-04-06T15:53:49.287Z,10.90
2024-04-06T15:58:53.499Z,10.20
2024-04-06T16:04:01.741Z,11.40
2024-04-06T16:09:04.610Z,10.20
2024-04-06T16:14:13.434Z,8.60
2024-04-06T16:19:16.490Z,10.60
2024-04-06T16:24:24.171Z,14.30
2024-04-06T16:29:32.427Z,11.20
2024-04-06T16:34:41.873Z,12.40
2024-04-06T16:39:45.118Z,10.80
2024-04-06T16:44:50.630Z,15.00
2024-04-06T16:49:55.258Z,13.90
2024-04-06T16:55:00.111Z,18.90
2024-04-06T17:00:08.364Z,12.70
2024-04-06T17:05:12.372Z,17.30
2024-04-06T17:10:15.404Z,12.70
2024-04-06T17:15:18.720Z,15.20
2024-04-06T17:20:23.425Z,9.30
2024-04-06T17:25:29.179Z,15.70
2024-04-06T17:30:34.431Z,14.80
2024-04-06T17:35:38.482Z,10.50
2024-04-06T17:40:43.796Z,10.30
2024-04-06T17:45:46.340Z,14.30
2024-04-06T17:50:49.220Z,13.80
2024-04-06T17:55:51.996Z,15.00
2024-04-06T18:00:55.880Z,13.50
2024-04-06T18:06:00.106Z,24.90
2024-04-06T18:11:07.727Z,20.30
2024-04-06T18:16:22.891Z,25.70
2024-04-06T18:21:31.527Z,18.40
2024-04-06T18:26:40.573Z,29.40
2024-04-06T18:31:46.205Z,25.40
2024-04-06T18:36:51.006Z,20.10
2024-04-06T18:42:05.018Z,17.00
2024-04-06T18:47:07.731Z,19.20
2024-04-06T18:52:13.027Z,19.90
2024-04-06T18:57:23.573Z,24.80
2024-04-06T19:02:28.313Z,20.90
2024-04-06T19:07:33.632Z,23.40
2024-04-06T19:12:42.743Z,22.40
2024-04-06T19:17:47.404Z,20.80
2024-04-06T19:22:50.565Z,22.20
2024-04-06T19:27:53.411Z,19.60
2024-04-06T19:33:01.469Z,23.60
2024-04-06T19:38:04.599Z,21.30
2024-04-06T19:43:16.171Z,22.40
2024-04-06T19:48:18.964Z,19.40
2024-04-06T19:53:23.206Z,21.90
2024-04-06T19:58:26.486Z,20.00
2024-04-06T20:03:29.502Z,23.50
2024-04-06T20:08:32.301Z,22.80
2024-04-06T20:13:37.222Z,21.30
2024-04-06T20:18:42.233Z,17.60
2024-04-06T20:24:13.047Z,17.00
2024-04-06T20:29:19.384Z,17.60
2024-04-06T20:34:26.924Z,29.10
2024-04-06T20:39:29.730Z,35.80
2024-04-06T20:44:35.279Z,21.10
2024-04-06T20:49:40.519Z,18.50
2024-04-06T20:54:44.898Z,19.80
2024-04-06T20:59:47.478Z,27.60
2024-04-06T21:04:52.594Z,26.80
2024-04-06T21:10:00.717Z,26.50
2024-04-06T21:15:27.255Z,39.50
2024-04-06T21:20:34.011Z,41.90
2024-04-06T21:25:37.215Z,51.30
2024-04-06T21:30:40.401Z,29.60
2024-04-06T21:35:46.357Z,21.10
2024-04-06T21:40:52.019Z,20.50
2024-04-06T21:45:57.627Z,23.50
2024-04-06T21:51:04.591Z,20.30
2024-04-06T21:56:08.709Z,21.30
2024-04-06T22:01:15.298Z,19.50
2024-04-06T22:06:18.402Z,17.70
2024-04-06T22:11:23.092Z,19.60
2024-04-06T22:16:29.580Z,21.90
2024-04-06T22:21:33.553Z,19.80
2024-04-06T22:26:36.175Z,16.40
2024-04-06T22:34:38.892Z,21.20
2024-04-06T22:39:46.657Z,18.30
2024-04-06T22:44:50.023Z,19.70
2024-04-06T22:49:55.345Z,16.70
2024-04-06T22:54:58.070Z,20.60
2024-04-06T23:00:03.094Z,20.40
2024-04-06T23:05:07.020Z,18.80
2024-04-06T23:10:14.134Z,26.60
2024-04-06T23:15:18.201Z,16.40
2024-04-06T23:20:22.212Z,24.30
2024-04-06T23:25:25.084Z,23.80
2024-04-06T23:30:27.705Z,24.40
2024-04-06T23:35:32.621Z,19.10
2024-04-06T23:40:42.978Z,16.00
2024-04-06T23:45:45.845Z,16.50
2024-04-06T23:51:15.167Z,22.70
2024-04-06T23:56:19.875Z,12.90
